Braggs, Oklahoma
Current Conditions -  °F | °C
As of 1:53 PM on Thursday 29 Jan 2015 (Local Time) from KMKO Reporting Station
Light Rain Light Rain  
Wind Chill: 42°   Ceiling: Unl
Heat Index: 49°   Visibility: 10mi
Dew Point: 30°   Wind: 21mph
Humidity: 48%   Direction: 350°N
Pressure: 30.38"   Gusts: 33mph
Location:  35.66°N, 95.2°W
Report Text: KMKO 291953Z AUTO 35018G29KT 10SM -RA FEW037 09/M01 A3038 RMK AO2 PK WND 36033/1854 SLP288 P0000 T00941011
Loading
Personal Weather Stations






























Interactive Weather Map New forecast layout! Learn more

10-Day Weather Forecast

Advertisements
Track Severe Weather on mobile